Aviation Digital Data Service (ADDS)

Output produced by METARs form (1827 UTC 18 April 2019)
found at http://www.aviationweather.gov/metar/data/
 
METAR text: ETHN 181820Z 08008KT 9999 FEW280 14/03 Q1024 BLU+
Conditions at: ETHN (NIEDERSTETTEN (G, DE) observed 1820 UTC 18 April 2019
Temperature: 14.0°C (57°F)
Dewpoint: 3.0°C (37°F) [RH = 47%]
Pressure (altimeter): 30.24 inches Hg (1024.0 mb)
Winds: from the E (80 degrees) at 9 MPH (8 knots; 4.1 m/s)
Visibility: 6 or more miles (10+ km)
Ceiling: at least 12,000 feet AGL
Clouds: few clouds at 28000 feet AGL
Weather: no significant weather observed at this time

METAR text: ETHN 181720Z 09009KT 9999 FEW280 17/04 Q1023 BLU+
Conditions at: ETHN (NIEDERSTETTEN (G, DE) observed 1720 UTC 18 April 2019
Temperature: 17.0°C (63°F)
Dewpoint: 4.0°C (39°F) [RH = 42%]
Pressure (altimeter): 30.21 inches Hg (1023.0 mb)
Winds: from the E (90 degrees) at 10 MPH (9 knots; 4.6 m/s)
Visibility: 6 or more miles (10+ km)
Ceiling: at least 12,000 feet AGL
Clouds: few clouds at 28000 feet AGL
Weather: no significant weather observed at this time

METAR text: ETHN 181620Z 11011KT 9999 FEW060 18/03 Q1023 BLU+
Conditions at: ETHN (NIEDERSTETTEN (G, DE) observed 1620 UTC 18 April 2019
Temperature: 18.0°C (64°F)
Dewpoint: 3.0°C (37°F) [RH = 37%]
Pressure (altimeter): 30.21 inches Hg (1023.0 mb)
Winds: from the ESE (110 degrees) at 13 MPH (11 knots; 5.7 m/s)
Visibility: 6 or more miles (10+ km)
Ceiling: at least 12,000 feet AGL
Clouds: few clouds at 6000 feet AGL
Weather: no significant weather observed at this time

METAR text: ETHN 181520Z 12013KT 9999 FEW060 19/03 Q1023 BLU+FCST CANCEL
Conditions at: ETHN (NIEDERSTETTEN (G, DE) observed 1520 UTC 18 April 2019
Temperature: 19.0°C (66°F)
Dewpoint: 3.0°C (37°F) [RH = 34%]
Pressure (altimeter): 30.21 inches Hg (1023.0 mb)
Winds: from the ESE (120 degrees) at 15 MPH (13 knots; 6.7 m/s)
Visibility: 6 or more miles (10+ km)
Ceiling: at least 12,000 feet AGL
Clouds: few clouds at 6000 feet AGL
Weather: no significant weather observed at this time

METAR text: ETHN 181420Z 13013KT 9999 FEW055 SCT270 18/04 Q1023 BLU+BLU+
Conditions at: ETHN (NIEDERSTETTEN (G, DE) observed 1420 UTC 18 April 2019
Temperature: 18.0°C (64°F)
Dewpoint: 4.0°C (39°F) [RH = 39%]
Pressure (altimeter): 30.21 inches Hg (1023.0 mb)
Winds: from the SE (130 degrees) at 15 MPH (13 knots; 6.7 m/s)
Visibility: 6 or more miles (10+ km)
Ceiling: at least 12,000 feet AGL
Clouds: few clouds at 5500 feet AGL
scattered clouds at 27000 feet AGL
Weather: no significant weather observed at this time

METAR text: ETHN 181320Z 10013G25KT 9999 FEW050 SCT180 18/04 Q1023 BLU+BLU+
Conditions at: ETHN (NIEDERSTETTEN (G, DE) observed 1320 UTC 18 April 2019
Temperature: 18.0°C (64°F)
Dewpoint: 4.0°C (39°F) [RH = 39%]
Pressure (altimeter): 30.21 inches Hg (1023.0 mb)
Winds: from the E (100 degrees) at 15 MPH (13 knots; 6.7 m/s)
gusting to 29 MPH (25 knots; 12.9 m/s)
Visibility: 6 or more miles (10+ km)
Ceiling: at least 12,000 feet AGL
Clouds: few clouds at 5000 feet AGL
scattered clouds at 18000 feet AGL
Weather: no significant weather observed at this time

METAR text: ETHN 181220Z 11016KT 9999 FEW050 SCT180 17/04 Q1023 BLU+BLU+
Conditions at: ETHN (NIEDERSTETTEN (G, DE) observed 1220 UTC 18 April 2019
Temperature: 17.0°C (63°F)
Dewpoint: 4.0°C (39°F) [RH = 42%]
Pressure (altimeter): 30.21 inches Hg (1023.0 mb)
Winds: from the ESE (110 degrees) at 18 MPH (16 knots; 8.2 m/s)
Visibility: 6 or more miles (10+ km)
Ceiling: at least 12,000 feet AGL
Clouds: few clouds at 5000 feet AGL
scattered clouds at 18000 feet AGL
Weather: no significant weather observed at this time

METAR text: ETHN 181120Z 12013KT 9999 SCT200 17/05 Q1024 BLU+BLU+
Conditions at: ETHN (NIEDERSTETTEN (G, DE) observed 1120 UTC 18 April 2019
Temperature: 17.0°C (63°F)
Dewpoint: 5.0°C (41°F) [RH = 45%]
Pressure (altimeter): 30.24 inches Hg (1024.0 mb)
Winds: from the ESE (120 degrees) at 15 MPH (13 knots; 6.7 m/s)
Visibility: 6 or more miles (10+ km)
Ceiling: at least 12,000 feet AGL
Clouds: scattered clouds at 20000 feet AGL
Weather: no significant weather observed at this time

METAR text: ETHN 181020Z 09013KT 9999 SCT180 16/05 Q1024 BLU+BLU+
Conditions at: ETHN (NIEDERSTETTEN (G, DE) observed 1020 UTC 18 April 2019
Temperature: 16.0°C (61°F)
Dewpoint: 5.0°C (41°F) [RH = 48%]
Pressure (altimeter): 30.24 inches Hg (1024.0 mb)
Winds: from the E (90 degrees) at 15 MPH (13 knots; 6.7 m/s)
Visibility: 6 or more miles (10+ km)
Ceiling: at least 12,000 feet AGL
Clouds: scattered clouds at 18000 feet AGL
Weather: no significant weather observed at this time

METAR text: ETHN 180920Z 11014G25KT 9999 SCT170 14/04 Q1024 BLU+BLU+
Conditions at: ETHN (NIEDERSTETTEN (G, DE) observed 0920 UTC 18 April 2019
Temperature: 14.0°C (57°F)
Dewpoint: 4.0°C (39°F) [RH = 51%]
Pressure (altimeter): 30.24 inches Hg (1024.0 mb)
Winds: from the ESE (110 degrees) at 16 MPH (14 knots; 7.2 m/s)
gusting to 29 MPH (25 knots; 12.9 m/s)
Visibility: 6 or more miles (10+ km)
Ceiling: at least 12,000 feet AGL
Clouds: scattered clouds at 17000 feet AGL
Weather: no significant weather observed at this time

METAR text: ETHN 180820Z 12015KT 9999 FEW180 13/04 Q1024 BLU+BLU+
Conditions at: ETHN (NIEDERSTETTEN (G, DE) observed 0820 UTC 18 April 2019
Temperature: 13.0°C (55°F)
Dewpoint: 4.0°C (39°F) [RH = 54%]
Pressure (altimeter): 30.24 inches Hg (1024.0 mb)
Winds: from the ESE (120 degrees) at 17 MPH (15 knots; 7.7 m/s)
Visibility: 6 or more miles (10+ km)
Ceiling: at least 12,000 feet AGL
Clouds: few clouds at 18000 feet AGL
Weather: no significant weather observed at this time

METAR text: ETHN 180720Z 10010KT 9999 FEW170 11/04 Q1024 BLU+BLU+
Conditions at: ETHN (NIEDERSTETTEN (G, DE) observed 0720 UTC 18 April 2019
Temperature: 11.0°C (52°F)
Dewpoint: 4.0°C (39°F) [RH = 62%]
Pressure (altimeter): 30.24 inches Hg (1024.0 mb)
Winds: from the E (100 degrees) at 12 MPH (10 knots; 5.1 m/s)
Visibility: 6 or more miles (10+ km)
Ceiling: at least 12,000 feet AGL
Clouds: few clouds at 17000 feet AGL
Weather: no significant weather observed at this time

METAR text: ETHN 180620Z 08010KT 9999 FEW170 09/03 Q1024 BLU+BLU+
Conditions at: ETHN (NIEDERSTETTEN (G, DE) observed 0620 UTC 18 April 2019
Temperature: 9.0°C (48°F)
Dewpoint: 3.0°C (37°F) [RH = 66%]
Pressure (altimeter): 30.24 inches Hg (1024.0 mb)
Winds: from the E (80 degrees) at 12 MPH (10 knots; 5.1 m/s)
Visibility: 6 or more miles (10+ km)
Ceiling: at least 12,000 feet AGL
Clouds: few clouds at 17000 feet AGL
Weather: no significant weather observed at this time

METAR text: ETHN 180520Z 08007KT 9999 FEW160 07/03 Q1024 BLU+BLU+
Conditions at: ETHN (NIEDERSTETTEN (G, DE) observed 0520 UTC 18 April 2019
Temperature: 7.0°C (45°F)
Dewpoint: 3.0°C (37°F) [RH = 76%]
Pressure (altimeter): 30.24 inches Hg (1024.0 mb)
Winds: from the E (80 degrees) at 8 MPH (7 knots; 3.6 m/s)
Visibility: 6 or more miles (10+ km)
Ceiling: at least 12,000 feet AGL
Clouds: few clouds at 16000 feet AGL
Weather: no significant weather observed at this time

METAR text: ETHN 180420Z 10009KT 9999 FEW160 06/02 Q1023 BLU+BLU+
Conditions at: ETHN (NIEDERSTETTEN (G, DE) observed 0420 UTC 18 April 2019
Temperature: 6.0°C (43°F)
Dewpoint: 2.0°C (36°F) [RH = 75%]
Pressure (altimeter): 30.21 inches Hg (1023.0 mb)
Winds: from the E (100 degrees) at 10 MPH (9 knots; 4.6 m/s)
Visibility: 6 or more miles (10+ km)
Ceiling: at least 12,000 feet AGL
Clouds: few clouds at 16000 feet AGL
Weather: no significant weather observed at this time

METAR text: ETHN 180320Z 09010KT 9999 FEW200 06/02 Q1023 BLU+
Conditions at: ETHN (NIEDERSTETTEN (G, DE) observed 0320 UTC 18 April 2019
Temperature: 6.0°C (43°F)
Dewpoint: 2.0°C (36°F) [RH = 75%]
Pressure (altimeter): 30.21 inches Hg (1023.0 mb)
Winds: from the E (90 degrees) at 12 MPH (10 knots; 5.1 m/s)
Visibility: 6 or more miles (10+ km)
Ceiling: at least 12,000 feet AGL
Clouds: few clouds at 20000 feet AGL
Weather: no significant weather observed at this time

METAR text: ETHN 180220Z 10009KT 9999 06/01 Q1023 BLU+
Conditions at: ETHN (NIEDERSTETTEN (G, DE) observed 0220 UTC 18 April 2019
Temperature: 6.0°C (43°F)
Dewpoint: 1.0°C (34°F) [RH = 70%]
Pressure (altimeter): 30.21 inches Hg (1023.0 mb)
Winds: from the E (100 degrees) at 10 MPH (9 knots; 4.6 m/s)
Visibility: 6 or more miles (10+ km)
Ceiling: unknown
Clouds: missing
Weather: no significant weather observed at this time

METAR text: ETHN 180120Z 11010KT 9999 07/01 Q1023 BLU+
Conditions at: ETHN (NIEDERSTETTEN (G, DE) observed 0120 UTC 18 April 2019
Temperature: 7.0°C (45°F)
Dewpoint: 1.0°C (34°F) [RH = 66%]
Pressure (altimeter): 30.21 inches Hg (1023.0 mb)
Winds: from the ESE (110 degrees) at 12 MPH (10 knots; 5.1 m/s)
Visibility: 6 or more miles (10+ km)
Ceiling: unknown
Clouds: missing
Weather: no significant weather observed at this time

METAR text: ETHN 180020Z 11010KT 9999 08/01 Q1023 BLU+
Conditions at: ETHN (NIEDERSTETTEN (G, DE) observed 0020 UTC 18 April 2019
Temperature: 8.0°C (46°F)
Dewpoint: 1.0°C (34°F) [RH = 61%]
Pressure (altimeter): 30.21 inches Hg (1023.0 mb)
Winds: from the ESE (110 degrees) at 12 MPH (10 knots; 5.1 m/s)
Visibility: 6 or more miles (10+ km)
Ceiling: unknown
Clouds: missing
Weather: no significant weather observed at this time

METAR text: ETHN 172320Z 11012KT 9999 FEW260 09/01 Q1023 BLU+
Conditions at: ETHN (NIEDERSTETTEN (G, DE) observed 2320 UTC 17 April 2019
Temperature: 9.0°C (48°F)
Dewpoint: 1.0°C (34°F) [RH = 57%]
Pressure (altimeter): 30.21 inches Hg (1023.0 mb)
Winds: from the ESE (110 degrees) at 14 MPH (12 knots; 6.2 m/s)
Visibility: 6 or more miles (10+ km)
Ceiling: at least 12,000 feet AGL
Clouds: few clouds at 26000 feet AGL
Weather: no significant weather observed at this time

METAR text: ETHN 172220Z 10011KT 9999 FEW260 10/00 Q1023 BLU+FCST CANCEL
Conditions at: ETHN (NIEDERSTETTEN (G, DE) observed 2220 UTC 17 April 2019
Temperature: 10.0°C (50°F)
Dewpoint: 0.0°C (32°F) [RH = 50%]
Pressure (altimeter): 30.21 inches Hg (1023.0 mb)
Winds: from the E (100 degrees) at 13 MPH (11 knots; 5.7 m/s)
Visibility: 6 or more miles (10+ km)
Ceiling: at least 12,000 feet AGL
Clouds: few clouds at 26000 feet AGL
Weather: no significant weather observed at this time

METAR text: ETHN 172120Z 10011KT 9999 FEW150 10/M02 Q1023 BLU+BLU+
Conditions at: ETHN (NIEDERSTETTEN (G, DE) observed 2120 UTC 17 April 2019
Temperature: 10.0°C (50°F)
Dewpoint: -2.0°C (28°F) [RH = 43%]
Pressure (altimeter): 30.21 inches Hg (1023.0 mb)
Winds: from the E (100 degrees) at 13 MPH (11 knots; 5.7 m/s)
Visibility: 6 or more miles (10+ km)
Ceiling: at least 12,000 feet AGL
Clouds: few clouds at 15000 feet AGL
Weather: no significant weather observed at this time

METAR text: ETHN 172020Z 11011KT 9999 SCT250 11/M02 Q1023 BLU+BLU+
Conditions at: ETHN (NIEDERSTETTEN (G, DE) observed 2020 UTC 17 April 2019
Temperature: 11.0°C (52°F)
Dewpoint: -2.0°C (28°F) [RH = 40%]
Pressure (altimeter): 30.21 inches Hg (1023.0 mb)
Winds: from the ESE (110 degrees) at 13 MPH (11 knots; 5.7 m/s)
Visibility: 6 or more miles (10+ km)
Ceiling: at least 12,000 feet AGL
Clouds: scattered clouds at 25000 feet AGL
Weather: no significant weather observed at this time

METAR text: ETHN 171920Z 09007KT 9999 SCT260 11/M01 Q1022 BLU+BLU+
Conditions at: ETHN (NIEDERSTETTEN (G, DE) observed 1920 UTC 17 April 2019
Temperature: 11.0°C (52°F)
Dewpoint: -1.0°C (30°F) [RH = 43%]
Pressure (altimeter): 30.18 inches Hg (1022.0 mb)
Winds: from the E (90 degrees) at 8 MPH (7 knots; 3.6 m/s)
Visibility: 6 or more miles (10+ km)
Ceiling: at least 12,000 feet AGL
Clouds: scattered clouds at 26000 feet AGL
Weather: no significant weather observed at this time

METAR text: ETHN 171820Z 10006KT 9999 FEW140 SCT320 13/M01 Q1022 BLU+BLU+
Conditions at: ETHN (NIEDERSTETTEN (G, DE) observed 1820 UTC 17 April 2019
Temperature: 13.0°C (55°F)
Dewpoint: -1.0°C (30°F) [RH = 38%]
Pressure (altimeter): 30.18 inches Hg (1022.0 mb)
Winds: from the E (100 degrees) at 7 MPH (6 knots; 3.1 m/s)
Visibility: 6 or more miles (10+ km)
Ceiling: at least 12,000 feet AGL
Clouds: few clouds at 14000 feet AGL
scattered clouds at 32000 feet AGL
Weather: no significant weather observed at this time

METAR text: ETHN 171720Z 11007KT 9999 FEW140 BKN290 15/M00 Q1021 BLU+BLU+
Conditions at: ETHN (NIEDERSTETTEN (G, DE) observed 1720 UTC 17 April 2019
Temperature: 15.0°C (59°F)
Dewpoint: 0.0°C (32°F) [RH = 36%]
Pressure (altimeter): 30.15 inches Hg (1021.0 mb)
Winds: from the ESE (110 degrees) at 8 MPH (7 knots; 3.6 m/s)
Visibility: 6 or more miles (10+ km)
Ceiling: 29000 feet AGL
Clouds: few clouds at 14000 feet AGL
broken clouds at 29000 feet AGL
Weather: no significant weather observed at this time

METAR text: ETHN 171620Z 11009KT 9999 FEW140 BKN300 17/M01 Q1021 BLU+BLU+
Conditions at: ETHN (NIEDERSTETTEN (G, DE) observed 1620 UTC 17 April 2019
Temperature: 17.0°C (63°F)
Dewpoint: -1.0°C (30°F) [RH = 29%]
Pressure (altimeter): 30.15 inches Hg (1021.0 mb)
Winds: from the ESE (110 degrees) at 10 MPH (9 knots; 4.6 m/s)
Visibility: 6 or more miles (10+ km)
Ceiling: 30000 feet AGL
Clouds: few clouds at 14000 feet AGL
broken clouds at 30000 feet AGL
Weather: no significant weather observed at this time

METAR text: ETHN 171520Z 10008KT 9999 FEW070 BKN300 17/01 Q1021 BLU+BLU+
Conditions at: ETHN (NIEDERSTETTEN (G, DE) observed 1520 UTC 17 April 2019
Temperature: 17.0°C (63°F)
Dewpoint: 1.0°C (34°F) [RH = 34%]
Pressure (altimeter): 30.15 inches Hg (1021.0 mb)
Winds: from the E (100 degrees) at 9 MPH (8 knots; 4.1 m/s)
Visibility: 6 or more miles (10+ km)
Ceiling: 30000 feet AGL
Clouds: few clouds at 7000 feet AGL
broken clouds at 30000 feet AGL
Weather: no significant weather observed at this time

METAR text: ETHN 171420Z 09005KT 9999 FEW060 BKN300 18/02 Q1021 BLU+BLU+
Conditions at: ETHN (NIEDERSTETTEN (G, DE) observed 1420 UTC 17 April 2019
Temperature: 18.0°C (64°F)
Dewpoint: 2.0°C (36°F) [RH = 34%]
Pressure (altimeter): 30.15 inches Hg (1021.0 mb)
Winds: from the E (90 degrees) at 6 MPH (5 knots; 2.6 m/s)
Visibility: 6 or more miles (10+ km)
Ceiling: 30000 feet AGL
Clouds: few clouds at 6000 feet AGL
broken clouds at 30000 feet AGL
Weather: no significant weather observed at this time

METAR text: ETHN 171320Z 12011KT 9999 FEW060 SCT300 17/02 Q1021 BLU+BLU+
Conditions at: ETHN (NIEDERSTETTEN (G, DE) observed 1320 UTC 17 April 2019
Temperature: 17.0°C (63°F)
Dewpoint: 2.0°C (36°F) [RH = 36%]
Pressure (altimeter): 30.15 inches Hg (1021.0 mb)
Winds: from the ESE (120 degrees) at 13 MPH (11 knots; 5.7 m/s)
Visibility: 6 or more miles (10+ km)
Ceiling: at least 12,000 feet AGL
Clouds: few clouds at 6000 feet AGL
scattered clouds at 30000 feet AGL
Weather: no significant weather observed at this time

METAR text: ETHN 171220Z 12010KT 9999 FEW050 SCT310 16/02 Q1022 BLU+BLU+
Conditions at: ETHN (NIEDERSTETTEN (G, DE) observed 1220 UTC 17 April 2019
Temperature: 16.0°C (61°F)
Dewpoint: 2.0°C (36°F) [RH = 39%]
Pressure (altimeter): 30.18 inches Hg (1022.0 mb)
Winds: from the ESE (120 degrees) at 12 MPH (10 knots; 5.1 m/s)
Visibility: 6 or more miles (10+ km)
Ceiling: at least 12,000 feet AGL
Clouds: few clouds at 5000 feet AGL
scattered clouds at 31000 feet AGL
Weather: no significant weather observed at this time

METAR text: ETHN 171120Z 12006KT 9999 SCT110 15/03 Q1022 BLU+BLU+
Conditions at: ETHN (NIEDERSTETTEN (G, DE) observed 1120 UTC 17 April 2019
Temperature: 15.0°C (59°F)
Dewpoint: 3.0°C (37°F) [RH = 44%]
Pressure (altimeter): 30.18 inches Hg (1022.0 mb)
Winds: from the ESE (120 degrees) at 7 MPH (6 knots; 3.1 m/s)
Visibility: 6 or more miles (10+ km)
Ceiling: at least 12,000 feet AGL
Clouds: scattered clouds at 11000 feet AGL
Weather: no significant weather observed at this time

METAR text: ETHN 171020Z 12008KT 9999 BKN080 BKN140 14/03 Q1023 BLU BLU
Conditions at: ETHN (NIEDERSTETTEN (G, DE) observed 1020 UTC 17 April 2019
Temperature: 14.0°C (57°F)
Dewpoint: 3.0°C (37°F) [RH = 47%]
Pressure (altimeter): 30.21 inches Hg (1023.0 mb)
Winds: from the ESE (120 degrees) at 9 MPH (8 knots; 4.1 m/s)
Visibility: 6 or more miles (10+ km)
Ceiling: 8000 feet AGL
Clouds: broken clouds at 8000 feet AGL
broken clouds at 14000 feet AGL
Weather: no significant weather observed at this time

METAR text: ETHN 170920Z 14003KT 9999 BKN070 BKN110 12/03 Q1022 BLU BLU
Conditions at: ETHN (NIEDERSTETTEN (G, DE) observed 0920 UTC 17 April 2019
Temperature: 12.0°C (54°F)
Dewpoint: 3.0°C (37°F) [RH = 54%]
Pressure (altimeter): 30.18 inches Hg (1022.0 mb)
Winds: from the SE (140 degrees) at 3 MPH (3 knots; 1.5 m/s)
Visibility: 6 or more miles (10+ km)
Ceiling: 7000 feet AGL
Clouds: broken clouds at 7000 feet AGL
broken clouds at 11000 feet AGL
Weather: no significant weather observed at this time

METAR text: ETHN 170820Z 12004KT 9999 BKN060 OVC090 11/03 Q1022 BLU BLU
Conditions at: ETHN (NIEDERSTETTEN (G, DE) observed 0820 UTC 17 April 2019
Temperature: 11.0°C (52°F)
Dewpoint: 3.0°C (37°F) [RH = 58%]
Pressure (altimeter): 30.18 inches Hg (1022.0 mb)
Winds: from the ESE (120 degrees) at 5 MPH (4 knots; 2.1 m/s)
Visibility: 6 or more miles (10+ km)
Ceiling: 6000 feet AGL
Clouds: broken clouds at 6000 feet AGL
overcast cloud deck at 9000 feet AGL
Weather: no significant weather observed at this time

METAR text: ETHN 170720Z 09004KT 9999 SCT060 OVC080 10/05 Q1022 BLU BLU
Conditions at: ETHN (NIEDERSTETTEN (G, DE) observed 0720 UTC 17 April 2019
Temperature: 10.0°C (50°F)
Dewpoint: 5.0°C (41°F) [RH = 71%]
Pressure (altimeter): 30.18 inches Hg (1022.0 mb)
Winds: from the E (90 degrees) at 5 MPH (4 knots; 2.1 m/s)
Visibility: 6 or more miles (10+ km)
Ceiling: 8000 feet AGL
Clouds: scattered clouds at 6000 feet AGL
overcast cloud deck at 8000 feet AGL
Weather: no significant weather observed at this time

Forecast for: AMD
Text: TAF AMD ETHN 181343Z 1814/1823 09010G20KT 9999 NSW SCT250 CANCEL 1400
Forecast period: 1400 to 2300 UTC 18 April 2019
Forecast type: FROM: standard forecast or significant change
Winds: from the E (90 degrees) at 12 MPH (10 knots; 5.1 m/s)
gusting to 23 MPH (20 knots; 10.3 m/s)
Visibility: 6 or more miles 10+ km)
Ceiling: at least 12,000 feet AGL
Clouds: scattered clouds at 25000 feet AGL
Weather: NSW  (no significant weather)